Time;durP1;ratioP1;P1;durP2;ratioP2;P2;SDS_P1;SDS_P2;PMS_P1;PMS_P2;Temp;Humidity;BMP_temperature;BMP_pressure;BME280_temperature;BME280_humidity;BME280_pressure;Samples;Min_cycle;Max_cycle;Signal;HPM_P1;HPM_P2
2024/03/11 00:00:38;;;;;;;20.10;16.60;;;10.80;1.00;;;;;;5112162;27;20500;-76
2024/03/11 00:03:08;;;;;;;17.23;15.37;;;10.80;1.00;;;;;;5105585;27;21024;-76
2024/03/11 00:05:36;;;;;;;16.53;14.70;;;10.70;1.00;;;;;;5088975;28;20467;-78
2024/03/11 00:08:04;;;;;;;17.23;15.20;;;10.60;1.00;;;;;;5099170;27;20458;-76
2024/03/11 00:10:33;;;;;;;16.27;14.57;;;10.60;1.00;;;;;;5089158;27;20494;-76
2024/03/11 00:13:02;;;;;;;17.70;15.13;;;10.60;1.00;;;;;;5087222;28;20455;-75
2024/03/11 00:15:31;;;;;;;19.07;16.80;;;10.60;1.00;;;;;;5096242;27;20442;-76
2024/03/11 00:17:58;;;;;;;20.07;15.13;;;10.50;1.00;;;;;;5073791;28;20508;-77
2024/03/11 00:20:26;;;;;;;18.30;15.67;;;10.50;1.00;;;;;;5090528;28;20466;-76
2024/03/11 00:22:53;;;;;;;17.43;15.47;;;10.50;1.00;;;;;;5089109;28;20545;-75
2024/03/11 00:25:20;;;;;;;17.17;15.40;;;10.50;1.00;;;;;;5087737;28;20474;-76
2024/03/11 00:27:48;;;;;;;17.87;16.10;;;10.50;1.00;;;;;;5098913;27;20465;-76
2024/03/11 00:30:17;;;;;;;17.87;15.73;;;10.40;1.00;;;;;;5095310;27;21211;-78
2024/03/11 00:32:45;;;;;;;16.47;14.80;;;10.40;1.00;;;;;;5107820;27;20459;-77
2024/03/11 00:35:14;;;;;;;16.70;14.97;;;10.40;1.00;;;;;;5104754;27;20485;-76
2024/03/11 00:37:42;;;;;;;18.23;16.30;;;10.40;1.00;;;;;;5109832;27;20470;-76
2024/03/11 00:40:09;;;;;;;17.83;16.10;;;10.40;1.00;;;;;;5094463;27;20478;-75
2024/03/11 00:42:38;;;;;;;18.60;16.07;;;10.40;1.00;;;;;;5096474;28;20509;-77
2024/03/11 00:45:06;;;;;;;17.90;14.00;;;10.40;1.00;;;;;;5092825;27;20512;-76
2024/03/11 00:47:35;;;;;;;17.83;15.67;;;10.40;1.00;;;;;;5104140;27;21174;-76
2024/03/11 00:50:06;;;;;;;16.27;14.67;;;10.50;1.00;;;;;;5092221;28;20465;-76
2024/03/11 00:52:33;;;;;;;18.37;15.13;;;10.40;1.00;;;;;;5076662;28;20530;-75
2024/03/11 00:55:00;;;;;;;16.40;14.90;;;10.40;1.00;;;;;;5092965;27;20446;-76
2024/03/11 00:57:27;;;;;;;16.90;15.20;;;10.40;1.00;;;;;;5092844;28;20457;-75
2024/03/11 00:59:55;;;;;;;17.47;14.67;;;10.40;1.00;;;;;;5091321;28;20474;-77
2024/03/11 01:02:24;;;;;;;17.10;15.43;;;10.40;1.00;;;;;;5090804;28;20580;-75
2024/03/11 01:04:53;;;;;;;18.00;16.07;;;10.40;1.00;;;;;;5089666;28;21374;-77
2024/03/11 01:07:20;;;;;;;18.20;15.27;;;10.30;1.00;;;;;;5091725;28;20464;-77
2024/03/11 01:09:47;;;;;;;16.83;15.17;;;10.30;1.00;;;;;;5101667;27;20567;-76
2024/03/11 01:12:14;;;;;;;16.97;15.30;;;10.30;1.00;;;;;;5093055;28;20535;-75
2024/03/11 01:14:41;;;;;;;19.23;16.43;;;10.30;1.00;;;;;;5090888;28;20561;-76
2024/03/11 01:17:08;;;;;;;18.27;15.50;;;10.20;1.00;;;;;;5098812;27;20427;-76
2024/03/11 01:19:35;;;;;;;20.63;15.50;;;10.10;1.00;;;;;;5089623;28;20981;-76
2024/03/11 01:22:03;;;;;;;18.03;15.13;;;10.10;1.00;;;;;;5101232;27;20475;-78
2024/03/11 01:24:30;;;;;;;17.20;14.97;;;10.00;1.00;;;;;;5090180;28;20457;-76
2024/03/11 01:26:57;;;;;;;16.40;14.77;;;10.00;1.00;;;;;;5090012;28;20516;-76
2024/03/11 01:29:26;;;;;;;17.87;16.00;;;10.00;1.00;;;;;;5097353;27;20973;-77
2024/03/11 01:31:53;;;;;;;16.63;14.90;;;10.00;1.00;;;;;;5100268;27;20454;-77
2024/03/11 01:34:21;;;;;;;17.90;16.07;;;10.00;1.00;;;;;;5108091;27;20539;-76
2024/03/11 01:36:49;;;;;;;16.80;14.30;;;10.00;1.00;;;;;;5093951;27;20963;-76
2024/03/11 01:39:25;;;;;;;15.83;14.33;;;10.00;1.00;;;;;;5097251;27;20480;-75
2024/03/11 01:41:53;;;;;;;20.10;15.03;;;10.00;1.00;;;;;;5090561;28;20466;-73
2024/03/11 01:44:21;;;;;;;16.90;15.20;;;10.00;1.00;;;;;;5090894;28;20465;-74
2024/03/11 01:46:50;;;;;;;15.93;14.33;;;10.10;1.00;;;;;;5090955;28;21302;-72
2024/03/11 01:49:17;;;;;;;15.90;14.33;;;10.00;1.00;;;;;;5096429;27;20463;-72
2024/03/11 01:51:45;;;;;;;16.67;14.97;;;10.00;1.00;;;;;;5086033;28;20540;-73
2024/03/11 01:54:13;;;;;;;18.20;14.73;;;9.90;1.00;;;;;;5092268;28;20465;-73
2024/03/11 01:56:44;;;;;;;17.20;14.17;;;10.00;1.00;;;;;;5090431;28;20549;-72
2024/03/11 01:59:12;;;;;;;16.60;14.83;;;10.00;1.00;;;;;;5103353;27;20489;-72
2024/03/11 02:01:41;;;;;;;16.77;14.30;;;10.00;1.00;;;;;;5107148;27;20458;-72
2024/03/11 02:04:09;;;;;;;15.73;14.20;;;10.10;1.00;;;;;;5109989;27;20470;-73
2024/03/11 02:06:36;;;;;;;16.60;14.50;;;10.10;1.00;;;;;;5101589;27;20477;-72
2024/03/11 02:09:04;;;;;;;18.00;15.60;;;10.10;1.00;;;;;;5089717;28;20553;-71
2024/03/11 02:11:32;;;;;;;15.90;14.20;;;10.10;1.00;;;;;;5096333;28;21192;-73
2024/03/11 02:14:01;;;;;;;16.60;13.50;;;10.20;1.00;;;;;;5088284;28;20446;-72
2024/03/11 02:16:29;;;;;;;16.80;13.10;;;10.20;1.00;;;;;;5097126;27;20455;-72
2024/03/11 02:18:55;;;;;;;17.30;14.63;;;10.20;1.00;;;;;;5107912;27;20457;-71
2024/03/11 02:21:23;;;;;;;20.13;15.67;;;10.30;1.00;;;;;;5108074;27;20922;-72
2024/03/11 02:23:51;;;;;;;16.43;14.60;;;10.30;1.00;;;;;;5107013;27;20541;-72
2024/03/11 02:26:19;;;;;;;16.97;14.83;;;10.30;1.00;;;;;;5087755;28;21179;-74
2024/03/11 02:28:46;;;;;;;16.23;14.57;;;10.30;1.00;;;;;;5089941;27;21139;-74
2024/03/11 02:31:13;;;;;;;19.13;13.70;;;10.40;1.00;;;;;;5096306;27;20536;-74
2024/03/11 02:33:40;;;;;;;15.67;14.07;;;10.40;1.00;;;;;;5091490;27;20555;-73
2024/03/11 02:36:08;;;;;;;15.83;14.13;;;10.40;1.00;;;;;;5105080;27;20459;-72
2024/03/11 02:38:34;;;;;;;16.77;14.63;;;10.40;1.00;;;;;;5088037;28;20482;-73
2024/03/11 02:41:03;;;;;;;15.87;14.17;;;10.40;1.00;;;;;;5087251;28;20549;-72
2024/03/11 02:43:30;;;;;;;16.33;14.63;;;10.40;1.00;;;;;;5088677;28;21059;-73
2024/03/11 02:45:57;;;;;;;17.10;15.30;;;10.40;1.00;;;;;;5090717;28;20935;-71
2024/03/11 02:48:24;;;;;;;16.30;14.17;;;10.40;1.00;;;;;;5089115;28;20849;-71
2024/03/11 02:50:51;;;;;;;15.87;13.90;;;10.40;1.00;;;;;;5105978;27;20578;-73
2024/03/11 02:53:18;;;;;;;15.40;13.80;;;10.40;1.00;;;;;;5110304;27;20956;-75
2024/03/11 02:55:45;;;;;;;15.90;14.23;;;10.40;1.00;;;;;;5107151;27;20527;-75
2024/03/11 02:58:13;;;;;;;16.10;14.40;;;10.40;1.00;;;;;;5110085;27;21432;-76
2024/03/11 03:00:40;;;;;;;16.80;14.50;;;10.40;1.00;;;;;;5109955;27;20461;-77
2024/03/11 03:03:07;;;;;;;16.93;15.23;;;10.40;1.00;;;;;;5111284;27;20501;-74
2024/03/11 03:05:36;;;;;;;15.00;13.50;;;10.30;1.00;;;;;;5108895;27;20446;-76
2024/03/11 03:08:03;;;;;;;18.80;14.50;;;10.40;1.00;;;;;;5094370;27;20930;-76
2024/03/11 03:10:30;;;;;;;15.90;14.30;;;10.40;1.00;;;;;;5092618;27;20512;-75
2024/03/11 03:12:57;;;;;;;14.57;13.13;;;10.40;1.00;;;;;;5087174;28;20849;-76
2024/03/11 03:15:25;;;;;;;17.73;13.87;;;10.40;1.00;;;;;;5090136;28;20586;-75
2024/03/11 03:17:53;;;;;;;17.83;14.60;;;10.40;1.00;;;;;;5085700;28;20471;-77
2024/03/11 03:20:20;;;;;;;17.70;14.50;;;10.40;1.00;;;;;;5088449;28;20485;-77
2024/03/11 03:22:47;;;;;;;15.80;14.20;;;10.50;1.00;;;;;;5097355;27;20463;-77
2024/03/11 03:25:14;;;;;;;16.80;14.57;;;10.50;1.00;;;;;;5099804;27;20477;-78
2024/03/11 03:27:41;;;;;;;15.23;13.53;;;10.40;1.00;;;;;;5089143;28;20439;-76
2024/03/11 03:30:09;;;;;;;14.43;12.93;;;10.40;1.00;;;;;;5101362;27;20586;-76
2024/03/11 03:32:38;;;;;;;15.57;13.90;;;10.40;1.00;;;;;;5088504;28;20455;-77
2024/03/11 03:35:06;;;;;;;14.83;13.23;;;10.40;1.00;;;;;;5104328;27;20476;-75
2024/03/11 03:37:34;;;;;;;15.73;14.00;;;10.40;1.00;;;;;;5109848;27;20600;-77
2024/03/11 03:40:01;;;;;;;15.23;13.63;;;10.40;1.00;;;;;;5089025;28;20530;-76
2024/03/11 03:42:28;;;;;;;16.53;13.67;;;10.40;1.00;;;;;;5091579;28;21001;-75
2024/03/11 03:44:55;;;;;;;14.27;12.70;;;10.30;1.00;;;;;;5097309;27;20520;-76
2024/03/11 03:47:24;;;;;;;17.03;13.80;;;10.40;1.00;;;;;;5095881;27;20563;-76
2024/03/11 03:49:53;;;;;;;17.13;13.70;;;10.40;1.00;;;;;;5107017;27;20895;-77
2024/03/11 03:52:20;;;;;;;15.30;13.70;;;10.40;1.00;;;;;;5106443;27;20456;-75
2024/03/11 03:54:46;;;;;;;14.40;13.03;;;10.40;1.00;;;;;;5108465;27;20525;-76
2024/03/11 03:57:15;;;;;;;16.17;14.30;;;10.40;1.00;;;;;;5107308;27;20530;-74
2024/03/11 03:59:42;;;;;;;15.83;14.13;;;10.40;1.00;;;;;;5090687;27;20463;-76
2024/03/11 04:02:09;;;;;;;16.40;13.83;;;10.30;1.00;;;;;;5107600;27;20450;-76
2024/03/11 04:04:39;;;;;;;16.03;13.87;;;10.40;1.00;;;;;;5096681;27;20490;-75
2024/03/11 04:07:08;;;;;;;17.53;14.37;;;10.40;1.00;;;;;;5107886;27;20478;-77
2024/03/11 04:09:36;;;;;;;15.90;14.00;;;10.40;1.00;;;;;;5090981;28;21145;-76
2024/03/11 04:12:04;;;;;;;18.93;16.00;;;10.40;1.00;;;;;;5091675;28;20459;-76
2024/03/11 04:14:31;;;;;;;15.67;13.30;;;10.40;1.00;;;;;;5093603;28;20538;-77
2024/03/11 04:16:58;;;;;;;14.53;12.57;;;10.50;1.00;;;;;;5088050;28;20458;-77
2024/03/11 04:19:25;;;;;;;16.67;14.83;;;10.50;1.00;;;;;;5094186;28;20481;-74
2024/03/11 04:21:53;;;;;;;14.67;13.13;;;10.50;1.00;;;;;;5100767;27;20485;-76
2024/03/11 04:24:21;;;;;;;17.40;15.13;;;10.50;1.00;;;;;;5097794;27;20458;-76
2024/03/11 04:26:50;;;;;;;16.93;13.73;;;10.40;1.00;;;;;;5101994;27;20870;-76
2024/03/11 04:29:18;;;;;;;15.77;14.17;;;10.50;1.00;;;;;;5094449;28;20591;-74
2024/03/11 04:31:45;;;;;;;16.77;15.07;;;10.50;1.00;;;;;;5099340;27;20462;-75
2024/03/11 04:34:12;;;;;;;16.30;14.60;;;10.50;1.00;;;;;;5100884;27;20970;-75
2024/03/11 04:36:41;;;;;;;15.97;14.27;;;10.50;1.00;;;;;;5093667;28;20473;-75
2024/03/11 04:39:08;;;;;;;17.00;14.37;;;10.50;1.00;;;;;;5093276;27;20494;-75
2024/03/11 04:41:36;;;;;;;16.63;14.03;;;10.50;1.00;;;;;;5094207;28;20524;-75
2024/03/11 04:44:03;;;;;;;17.90;15.27;;;10.50;1.00;;;;;;5093219;28;20470;-75
2024/03/11 04:46:30;;;;;;;15.67;14.03;;;10.50;1.00;;;;;;5091401;27;20473;-75
2024/03/11 04:48:58;;;;;;;16.27;14.60;;;10.50;1.00;;;;;;5101610;27;20992;-75
2024/03/11 04:51:25;;;;;;;16.53;14.80;;;10.50;1.00;;;;;;5110209;27;20454;-74
2024/03/11 04:53:52;;;;;;;15.80;13.90;;;10.40;1.00;;;;;;5116570;27;20454;-75
2024/03/11 04:56:20;;;;;;;15.43;13.90;;;10.50;1.00;;;;;;5114985;27;20501;-75
2024/03/11 04:58:49;;;;;;;18.50;16.60;;;10.50;1.00;;;;;;5114974;27;21473;-74
2024/03/11 05:01:17;;;;;;;17.00;14.80;;;10.50;1.00;;;;;;5118836;27;20460;-75
2024/03/11 05:03:44;;;;;;;16.00;14.50;;;10.50;1.00;;;;;;5111245;27;20601;-75
2024/03/11 05:06:10;;;;;;;16.83;13.97;;;10.50;1.00;;;;;;5114288;27;20472;-75
2024/03/11 05:08:38;;;;;;;17.13;15.50;;;10.50;1.00;;;;;;5095825;28;20540;-75
2024/03/11 05:11:05;;;;;;;18.90;14.50;;;10.50;1.00;;;;;;5094243;28;20513;-74
2024/03/11 05:13:32;;;;;;;17.83;14.30;;;10.60;1.00;;;;;;5087552;28;20470;-72
2024/03/11 05:16:00;;;;;;;21.90;15.57;;;10.50;1.00;;;;;;5087298;27;20455;-72
2024/03/11 05:18:30;;;;;;;16.43;15.03;;;10.50;1.00;;;;;;5103314;27;20985;-74
2024/03/11 05:20:59;;;;;;;15.83;14.23;;;10.50;1.00;;;;;;5110572;27;20450;-73
2024/03/11 05:23:26;;;;;;;18.03;16.23;;;10.50;1.00;;;;;;5110534;27;21892;-74
2024/03/11 05:25:53;;;;;;;15.20;13.60;;;10.50;1.00;;;;;;5108296;27;21276;-73
2024/03/11 05:28:20;;;;;;;14.90;13.40;;;10.50;1.00;;;;;;5113917;27;20458;-73
2024/03/11 05:30:47;;;;;;;17.07;15.37;;;10.50;1.00;;;;;;5108351;28;20549;-71
2024/03/11 05:33:16;;;;;;;14.90;13.43;;;10.50;1.00;;;;;;5109673;27;20481;-72
2024/03/11 05:35:43;;;;;;;16.57;14.80;;;10.50;1.00;;;;;;5108355;27;20474;-73
2024/03/11 05:38:11;;;;;;;19.53;14.63;;;10.50;1.00;;;;;;5111977;27;20454;-73
2024/03/11 05:40:38;;;;;;;16.80;13.93;;;10.60;1.00;;;;;;5110756;27;20556;-77
2024/03/11 05:43:05;;;;;;;26.10;16.70;;;10.60;1.00;;;;;;5096435;27;20993;-72
2024/03/11 05:45:32;;;;;;;16.40;14.47;;;10.60;1.00;;;;;;5089845;28;20965;-72
2024/03/11 05:48:03;;;;;;;20.17;16.03;;;10.60;1.00;;;;;;5091111;28;20548;-74
2024/03/11 05:50:32;;;;;;;42.60;20.00;;;10.60;1.00;;;;;;5090760;28;20974;-72
2024/03/11 05:52:59;;;;;;;20.60;15.00;;;10.70;1.00;;;;;;5088632;28;21091;-72
2024/03/11 05:55:32;;;;;;;17.33;14.40;;;10.70;1.00;;;;;;5089935;28;20470;-73
2024/03/11 05:58:08;;;;;;;16.40;14.73;;;10.70;1.00;;;;;;5089129;28;20454;-72
2024/03/11 06:00:36;;;;;;;15.90;14.17;;;10.70;1.00;;;;;;5090645;28;20462;-71
2024/03/11 06:03:04;;;;;;;17.23;14.80;;;10.70;1.00;;;;;;5100302;27;20843;-71
2024/03/11 06:05:32;;;;;;;16.00;14.50;;;10.80;1.00;;;;;;5087308;28;20562;-73
2024/03/11 06:07:59;;;;;;;16.60;15.00;;;10.70;1.00;;;;;;5087427;28;20450;-75
2024/03/11 06:10:27;;;;;;;19.57;16.37;;;10.70;1.00;;;;;;5087736;28;20468;-74
2024/03/11 06:12:54;;;;;;;20.80;15.17;;;10.80;1.00;;;;;;5086904;28;20516;-71
2024/03/11 06:15:22;;;;;;;17.60;14.53;;;10.80;1.00;;;;;;5084231;27;20548;-76
2024/03/11 06:17:49;;;;;;;16.30;14.60;;;10.80;1.00;;;;;;5085865;28;20457;-73
2024/03/11 06:20:16;;;;;;;16.20;14.43;;;10.80;1.00;;;;;;5086993;28;20534;-74
2024/03/11 06:22:45;;;;;;;17.07;14.80;;;10.80;1.00;;;;;;5083233;27;21041;-75
2024/03/11 06:25:15;;;;;;;15.17;13.70;;;10.90;1.00;;;;;;5091725;27;20561;-76
2024/03/11 06:27:43;;;;;;;15.87;14.27;;;10.90;1.00;;;;;;5086770;28;20459;-77
2024/03/11 06:30:11;;;;;;;18.23;16.00;;;11.00;1.00;;;;;;5088042;28;20508;-75
2024/03/11 06:32:40;;;;;;;15.97;14.27;;;10.90;1.00;;;;;;5087248;27;20455;-74
2024/03/11 06:35:08;;;;;;;17.00;14.93;;;11.00;1.00;;;;;;5088880;28;21311;-74
2024/03/11 06:37:35;;;;;;;14.20;12.70;;;11.10;1.00;;;;;;5090193;28;20510;-74
2024/03/11 06:40:05;;;;;;;16.97;15.20;;;11.10;1.00;;;;;;5091795;28;20467;-77
2024/03/11 06:42:32;;;;;;;17.40;14.73;;;11.10;1.00;;;;;;5094474;28;20530;-76
2024/03/11 06:44:59;;;;;;;15.27;13.60;;;11.10;1.00;;;;;;5092589;28;20547;-78
2024/03/11 06:47:26;;;;;;;17.00;13.77;;;11.20;1.00;;;;;;5092091;28;20922;-75
2024/03/11 06:49:53;;;;;;;19.23;15.50;;;11.20;1.00;;;;;;5091142;28;20463;-75
2024/03/11 06:52:23;;;;;;;17.83;13.70;;;11.20;1.00;;;;;;5089921;28;20454;-75
2024/03/11 06:54:51;;;;;;;15.40;13.90;;;11.20;1.00;;;;;;5094145;27;20470;-75
2024/03/11 06:57:19;;;;;;;25.93;14.83;;;11.20;1.00;;;;;;5095323;28;20447;-75
2024/03/11 06:59:47;;;;;;;16.03;14.50;;;11.30;1.00;;;;;;5091745;28;20467;-75
2024/03/11 07:02:16;;;;;;;17.33;15.03;;;11.30;1.00;;;;;;5096303;27;20470;-75
2024/03/11 07:04:45;;;;;;;18.43;15.20;;;11.40;1.00;;;;;;5091188;27;21021;-74
2024/03/11 07:07:11;;;;;;;27.93;17.20;;;11.40;1.00;;;;;;5088545;28;21294;-74
2024/03/11 07:09:39;;;;;;;16.37;14.67;;;11.40;1.00;;;;;;5087935;27;20459;-75
2024/03/11 07:12:10;;;;;;;20.40;15.60;;;11.40;1.00;;;;;;5090656;28;20478;-75
2024/03/11 07:14:38;;;;;;;20.83;15.90;;;11.40;1.00;;;;;;5089173;28;20478;-77
2024/03/11 07:17:07;;;;;;;25.03;20.23;;;11.40;1.00;;;;;;5086926;28;20794;-77
2024/03/11 07:19:38;;;;;;;15.37;13.87;;;11.50;1.00;;;;;;5089086;28;20854;-76
2024/03/11 07:22:07;;;;;;;18.43;15.20;;;11.60;1.00;;;;;;5091383;28;20463;-76
2024/03/11 07:24:34;;;;;;;18.63;14.93;;;11.70;1.00;;;;;;5090125;28;20555;-75
2024/03/11 07:27:01;;;;;;;15.80;14.20;;;11.60;1.00;;;;;;5086949;28;20444;-77
2024/03/11 07:29:28;;;;;;;20.70;15.23;;;11.60;1.00;;;;;;5090399;28;20463;-77
2024/03/11 07:31:57;;;;;;;17.60;15.80;;;11.50;1.00;;;;;;5090906;28;20482;-79
2024/03/11 07:34:24;;;;;;;17.43;15.13;;;11.60;1.00;;;;;;5090414;28;20562;-78
2024/03/11 07:36:55;;;;;;;16.67;14.80;;;11.60;1.00;;;;;;5087433;28;20550;-76
2024/03/11 07:39:24;;;;;;;18.07;16.17;;;11.70;1.00;;;;;;5110329;27;20451;-76
2024/03/11 07:41:51;;;;;;;20.00;16.10;;;11.50;1.00;;;;;;5091720;27;20484;-76
2024/03/11 07:44:18;;;;;;;16.37;14.70;;;11.50;1.00;;;;;;5087426;28;20484;-79
2024/03/11 07:46:47;;;;;;;17.07;15.27;;;11.60;1.00;;;;;;5091844;28;20526;-78
2024/03/11 07:49:16;;;;;;;18.73;14.80;;;11.50;1.00;;;;;;5103992;27;20833;-75
2024/03/11 07:51:43;;;;;;;20.20;16.93;;;11.50;1.00;;;;;;5109294;27;20520;-77
2024/03/11 07:54:11;;;;;;;15.87;14.27;;;11.60;1.00;;;;;;5105167;27;20555;-78
2024/03/11 07:56:38;;;;;;;17.87;14.50;;;11.70;1.00;;;;;;5087537;27;20455;-77
2024/03/11 07:59:06;;;;;;;27.47;16.20;;;11.70;1.00;;;;;;5083352;28;20459;-77
2024/03/11 08:01:33;;;;;;;36.33;19.30;;;11.70;1.00;;;;;;5091704;28;21156;-75
2024/03/11 08:04:00;;;;;;;32.13;16.87;;;11.70;1.00;;;;;;5082062;28;20564;-76
2024/03/11 08:06:30;;;;;;;14.87;13.37;;;11.90;1.00;;;;;;5083476;28;20526;-75
2024/03/11 08:08:57;;;;;;;14.30;12.80;;;12.00;1.00;;;;;;5096071;27;20538;-73
2024/03/11 08:11:25;;;;;;;20.60;14.00;;;12.00;1.00;;;;;;5082841;28;20494;-77
2024/03/11 08:13:53;;;;;;;14.67;13.20;;;11.90;1.00;;;;;;5106497;27;20462;-77
2024/03/11 08:16:20;;;;;;;17.70;14.37;;;11.90;1.00;;;;;;5092774;27;20462;-76
2024/03/11 08:18:47;;;;;;;17.40;14.07;;;11.90;1.00;;;;;;5090279;28;20498;-76
2024/03/11 08:21:14;;;;;;;15.50;13.90;;;12.00;1.00;;;;;;5091591;28;20478;-76
2024/03/11 08:23:42;;;;;;;15.83;13.80;;;11.90;1.00;;;;;;5090275;27;20511;-77
2024/03/11 08:26:11;;;;;;;15.60;14.00;;;12.00;1.00;;;;;;5090354;27;20987;-77
2024/03/11 08:28:39;;;;;;;18.93;14.50;;;12.10;1.00;;;;;;5090972;27;20440;-78
2024/03/11 08:31:07;;;;;;;16.03;14.53;;;12.10;1.00;;;;;;5091717;28;20462;-77
2024/03/11 08:33:38;;;;;;;19.60;14.93;;;12.20;1.00;;;;;;5098457;27;20539;-81
2024/03/11 08:36:06;;;;;;;20.97;14.73;;;12.30;1.00;;;;;;5093930;27;20454;-78
2024/03/11 08:38:35;;;;;;;18.80;15.20;;;12.40;1.00;;;;;;5091745;28;20539;-77
2024/03/11 08:41:06;;;;;;;18.30;14.90;;;12.40;1.00;;;;;;5089753;28;21020;-76
2024/03/11 08:43:34;;;;;;;20.23;16.10;;;12.50;1.00;;;;;;5088033;28;20577;-77
2024/03/11 08:46:03;;;;;;;16.23;14.73;;;12.60;1.00;;;;;;5082438;28;20515;-78
2024/03/11 08:48:31;;;;;;;17.10;15.30;;;12.60;1.00;;;;;;5093362;28;20976;-78
2024/03/11 08:51:01;;;;;;;17.53;15.50;;;12.60;1.00;;;;;;5099253;27;20913;-77
2024/03/11 08:53:28;;;;;;;19.87;17.90;;;12.60;1.00;;;;;;5108927;28;20987;-81
2024/03/11 08:55:56;;;;;;;17.53;15.27;;;12.70;1.00;;;;;;5115583;27;20432;-83
2024/03/11 08:58:24;;;;;;;20.13;16.33;;;12.60;1.00;;;;;;5099106;27;20463;-79
2024/03/11 09:00:52;;;;;;;19.13;17.30;;;12.70;1.00;;;;;;5102806;27;20458;-77
2024/03/11 09:03:20;;;;;;;18.20;16.40;;;12.70;1.00;;;;;;5105818;27;20594;-77
2024/03/11 09:05:49;;;;;;;19.67;17.17;;;12.70;1.00;;;;;;5097395;27;20440;-77
2024/03/11 09:08:16;;;;;;;20.87;18.30;;;12.70;1.00;;;;;;5090395;28;21370;-79
2024/03/11 09:10:47;;;;;;;19.40;17.50;;;12.90;1.00;;;;;;5089202;28;20484;-77
2024/03/11 09:13:14;;;;;;;23.33;20.90;;;12.80;1.00;;;;;;5097607;27;20468;-77
2024/03/11 09:15:44;;;;;;;24.27;21.87;;;12.80;1.00;;;;;;5094605;28;20445;-76
2024/03/11 09:18:11;;;;;;;24.37;21.97;;;12.70;1.00;;;;;;5093103;28;20472;-78
2024/03/11 09:20:38;;;;;;;27.60;24.87;;;12.90;1.00;;;;;;5088486;28;21308;-74
2024/03/11 09:23:07;;;;;;;25.13;22.57;;;13.00;1.00;;;;;;5088688;28;20469;-72
2024/03/11 09:25:36;;;;;;;27.30;24.60;;;13.10;1.00;;;;;;5088748;27;20463;-74
2024/03/11 09:28:04;;;;;;;25.90;23.33;;;12.80;1.00;;;;;;5091219;28;20461;-72
2024/03/11 09:30:32;;;;;;;28.33;25.53;;;12.60;1.00;;;;;;5090380;28;20551;-74
2024/03/11 09:33:01;;;;;;;28.30;25.60;;;12.50;1.00;;;;;;5096046;27;21064;-74
2024/03/11 09:35:28;;;;;;;27.90;25.00;;;12.60;1.00;;;;;;5089732;28;20533;-75
2024/03/11 09:37:56;;;;;;;27.37;24.50;;;12.50;1.00;;;;;;5087274;28;20544;-75
2024/03/11 09:40:26;;;;;;;27.13;24.43;;;12.60;1.00;;;;;;5093149;27;20444;-74
2024/03/11 09:42:55;;;;;;;29.23;26.23;;;12.50;1.00;;;;;;5099013;27;20710;-74
2024/03/11 09:45:24;;;;;;;27.67;25.00;;;12.50;1.00;;;;;;5086582;28;20982;-74
2024/03/11 09:47:55;;;;;;;30.00;26.93;;;12.60;1.00;;;;;;5091118;27;20822;-73
2024/03/11 09:50:27;;;;;;;30.27;27.37;;;12.50;1.00;;;;;;5105745;27;20498;-73
2024/03/11 09:52:58;;;;;;;30.27;27.27;;;12.50;1.00;;;;;;5104377;27;20571;-72
2024/03/11 09:55:31;;;;;;;27.37;24.73;;;12.50;1.00;;;;;;5069765;28;22805;-76
2024/03/11 09:58:02;;;;;;;25.30;22.83;;;12.50;1.00;;;;;;5090479;28;20472;-75
2024/03/11 10:00:32;;;;;;;25.83;23.13;;;12.60;1.00;;;;;;5107947;27;20447;-75
2024/03/11 10:03:00;;;;;;;27.53;24.47;;;12.70;1.00;;;;;;5086721;27;20606;-72
2024/03/11 10:05:30;;;;;;;26.50;23.87;;;12.60;1.00;;;;;;5095896;27;20457;-73
2024/03/11 10:08:01;;;;;;;28.50;25.60;;;12.60;1.00;;;;;;5087522;28;20438;-73
2024/03/11 10:10:29;;;;;;;26.90;24.40;;;12.40;1.00;;;;;;5089513;28;20565;-72
2024/03/11 10:12:58;;;;;;;40.23;36.53;;;12.40;1.00;;;;;;5105659;27;20570;-71
2024/03/11 10:15:28;;;;;;;26.30;23.80;;;12.60;1.00;;;;;;5094404;27;20559;-74
2024/03/11 10:18:25;;;;;;;27.03;24.43;;;12.70;1.00;;;;;;5081392;27;20535;-74
2024/03/11 10:20:59;;;;;;;27.23;24.50;;;13.00;1.00;;;;;;5091042;27;20493;-74
2024/03/11 10:23:27;;;;;;;25.30;22.80;;;13.40;1.00;;;;;;5089663;28;20891;-74
2024/03/11 10:26:17;;;;;;;27.07;24.47;;;13.60;1.00;;;;;;5088225;28;20961;-72
2024/03/11 10:28:45;;;;;;;25.73;23.33;;;13.80;1.00;;;;;;5089905;28;21253;-73
2024/03/11 10:31:23;;;;;;;28.00;25.40;;;13.80;1.00;;;;;;5089191;28;20904;-74
2024/03/11 10:33:52;;;;;;;26.27;23.73;;;14.10;1.00;;;;;;5089633;27;20478;-74
2024/03/11 10:36:24;;;;;;;27.00;24.33;;;14.20;1.00;;;;;;5094125;27;20458;-74
2024/03/11 10:38:55;;;;;;;23.60;21.40;;;14.10;1.00;;;;;;5088501;28;20947;-74
2024/03/11 10:41:23;;;;;;;24.73;22.17;;;14.30;1.00;;;;;;5087838;28;20954;-72
2024/03/11 10:43:51;;;;;;;26.33;23.23;;;14.40;1.00;;;;;;5085870;28;21089;-72
2024/03/11 10:46:20;;;;;;;24.33;22.00;;;14.60;1.00;;;;;;5085399;28;20512;-73
2024/03/11 10:48:48;;;;;;;24.77;22.43;;;15.00;1.00;;;;;;5084074;27;20470;-72
2024/03/11 10:51:21;;;;;;;23.30;21.10;;;15.00;1.00;;;;;;5085368;28;20454;-74
2024/03/11 10:53:51;;;;;;;23.57;21.30;;;15.10;1.00;;;;;;5088435;28;20473;-72
2024/03/11 10:56:24;;;;;;;21.60;19.57;;;15.40;1.00;;;;;;5104070;27;21060;-70
2024/03/11 10:58:55;;;;;;;24.87;22.00;;;15.60;1.00;;;;;;5107895;27;20480;-71
2024/03/11 11:01:34;;;;;;;22.30;20.30;;;15.70;1.00;;;;;;5100344;27;20540;-73
2024/03/11 11:04:06;;;;;;;23.57;21.47;;;15.60;1.00;;;;;;5084370;28;21083;-72
2024/03/11 11:06:34;;;;;;;23.07;20.90;;;15.60;1.00;;;;;;5088519;28;20958;-73
2024/03/11 11:09:11;;;;;;;24.47;22.20;;;15.40;1.00;;;;;;5089635;28;20442;-74
2024/03/11 11:11:41;;;;;;;23.43;21.10;;;15.10;1.00;;;;;;5084044;28;20481;-74
2024/03/11 11:14:11;;;;;;;23.13;20.93;;;15.10;1.00;;;;;;5090280;28;20463;-73
2024/03/11 11:16:43;;;;;;;22.80;20.50;;;14.80;1.00;;;;;;5089940;28;20963;-73
2024/03/11 11:19:14;;;;;;;22.87;20.77;;;14.60;1.00;;;;;;5088215;28;20469;-73
2024/03/11 11:21:43;;;;;;;23.23;21.07;;;14.30;1.00;;;;;;5093114;28;21044;-73
2024/03/11 11:24:29;;;;;;;25.30;20.70;;;14.60;1.00;;;;;;5104241;27;20543;-73
2024/03/11 11:27:01;;;;;;;24.27;21.93;;;15.10;1.00;;;;;;5098566;27;21038;-74
2024/03/11 11:29:29;;;;;;;22.33;19.93;;;15.50;1.00;;;;;;5090237;28;21316;-74
2024/03/11 11:32:04;;;;;;;23.50;21.30;;;15.50;1.00;;;;;;5091170;28;20863;-74
2024/03/11 11:34:52;;;;;;;23.00;20.80;;;15.50;1.00;;;;;;5085280;28;20853;-73
2024/03/11 11:37:40;;;;;;;21.63;19.50;;;15.60;1.00;;;;;;5090259;28;20462;-73
2024/03/11 11:40:31;;;;;;;23.23;21.03;;;15.40;1.00;;;;;;5093446;27;20461;-72
2024/03/11 11:42:59;;;;;;;25.00;21.77;;;15.50;1.00;;;;;;5082567;28;21470;-74
2024/03/11 11:45:52;;;;;;;19.73;17.97;;;15.50;1.00;;;;;;5082524;28;20469;-72
2024/03/11 11:48:28;;;;;;;20.20;18.40;;;15.50;1.00;;;;;;5085439;28;20434;-73
2024/03/11 11:50:58;;;;;;;22.40;20.47;;;15.60;1.00;;;;;;5085972;28;20778;-74
2024/03/11 11:53:30;;;;;;;23.37;21.03;;;15.40;1.00;;;;;;5090462;28;20458;-72
2024/03/11 11:56:00;;;;;;;20.40;18.50;;;15.20;1.00;;;;;;5084632;28;20463;-74
2024/03/11 11:58:27;;;;;;;21.30;19.30;;;15.00;1.00;;;;;;5086673;28;20539;-73
2024/03/11 12:00:59;;;;;;;19.73;17.73;;;15.00;1.00;;;;;;5093512;27;20527;-71
2024/03/11 12:03:30;;;;;;;20.00;18.10;;;14.90;1.00;;;;;;5090535;27;20468;-72
2024/03/11 12:06:18;;;;;;;18.30;16.60;;;14.80;1.00;;;;;;5090512;27;20468;-70
2024/03/11 12:08:47;;;;;;;18.03;16.37;;;14.90;1.00;;;;;;5082888;28;20893;-72
2024/03/11 12:11:19;;;;;;;20.17;18.00;;;14.80;1.00;;;;;;5087050;28;20512;-74
2024/03/11 12:13:47;;;;;;;19.40;17.60;;;14.80;1.00;;;;;;5089383;28;20548;-75
2024/03/11 12:16:23;;;;;;;20.07;17.93;;;14.90;1.00;;;;;;5087046;28;20664;-75
2024/03/11 12:19:05;;;;;;;17.70;16.10;;;14.90;1.00;;;;;;5090250;28;20546;-77
2024/03/11 12:21:35;;;;;;;18.97;17.17;;;14.90;1.00;;;;;;5090420;28;20446;-77
2024/03/11 12:24:07;;;;;;;18.53;16.73;;;15.10;1.00;;;;;;5090870;28;20465;-76
2024/03/11 12:26:36;;;;;;;18.60;16.70;;;15.10;1.00;;;;;;5092118;28;20524;-78
2024/03/11 12:29:05;;;;;;;20.00;18.10;;;15.20;1.00;;;;;;5097630;28;20434;-77
2024/03/11 12:31:34;;;;;;;17.43;15.83;;;15.40;1.00;;;;;;5099752;27;20438;-77
2024/03/11 12:34:06;;;;;;;16.67;15.07;;;15.70;1.00;;;;;;5099809;27;20441;-74
2024/03/11 12:36:34;;;;;;;17.67;16.17;;;16.00;1.00;;;;;;5108374;27;21284;-73
2024/03/11 12:39:04;;;;;;;16.60;15.00;;;16.20;1.00;;;;;;5094437;27;20488;-75
2024/03/11 12:41:42;;;;;;;15.87;14.27;;;16.50;1.00;;;;;;5105593;27;20466;-74
2024/03/11 12:44:13;;;;;;;16.13;14.50;;;17.10;1.00;;;;;;5094748;28;20839;-73